Aérodrome :
LOGIN :

S'inscrire | Disclaimer

   EN    FR    IT 

 










Légende :    VFR   VFR Marginal   IFR   IFR Intensif   IFR Très Intensif
Visi : 
Plafond : 
>= 8 km
>= 3000ft
5 à 8 km
1000 à 3000 ft
1500m à 5 km
500 à 1000 ft
800 à 1500m
200 à 500 ft
< 800m
< 200 ft
Symboles :   Orages  Brouillard  Fortes neiges  Fortes précipitations  Vent > 20 kt
SIGMETs :   Divers  Orages  Givrage  Turbulence  Onde Orograph.  Cendres Volcan.






- Altitude de l'aérodrome : 1213 ft
- Code IATA : SCQ


LEST - Santiago de Compostela

DERNIER METAR :
  • 022030Z 32003KT 280V030 9999 FEW030 15/12 Q1020 NOSIG

METARs EXPIRÉS :
  • 022000Z 34005KT 300V030 9999 FEW030 16/12 Q1020 NOSIG
  • 021930Z 35007KT 320V030 9999 FEW030 16/12 Q1019 NOSIG
  • 021900Z 35010KT 9999 FEW030 17/12 Q1019 NOSIG
  • 021830Z 35010KT 320V030 9999 FEW030 18/12 Q1019 NOSIG
  • 021800Z 36008KT 320V050 9999 FEW030 19/12 Q1019 NOSIG
  • 021730Z 02009KT 340V050 9999 FEW030 19/11 Q1019 NOSIG

TAF TAF LEST
Valide du 02 à 18h jusqu'au 03 à 18h UTC


021700Z 0218/0318 02008KT 9999 FEW030 TX21/0314Z TN12/0303Z
TEMPO 0302/0308 3000 BCFG BKN005
PROB40
TEMPO 0302/0307 0300 FG VV001
TEMPO 0316/0318 BKN010



MET'MAP, la Météo Aéronautique d'un coup d'oeil ! - Copyright ORBIFLY Décembre 2007 - Disclaimer

ORBIFLY MET'MAP TEAM :

Programmation & Développement : Alexandra Zaïnal
Sur une idée originale de : Baudouin d'Aumeries
Assistance à la programmation : Marc-Olivier Méhu
Soutien technique & logistique : Manuel Goepfert

Contact : metmap@orbifly.com




SOURCES & CREDITS :

   NOAA